sensor_id;sensor_type;location;lat;lon;timestamp;pressure;altitude;pressure_sealevel;temperature;humidity
67109;BME280;54027;50.786;7.058;2022-12-07T00:01:29;101331.91;;;4.98;97.42
67109;BME280;54027;50.786;7.058;2022-12-07T00:03:56;101326.78;;;4.99;98.02
67109;BME280;54027;50.786;7.058;2022-12-07T00:06:26;101328.53;;;5.00;97.85
67109;BME280;54027;50.786;7.058;2022-12-07T00:08:52;101327.72;;;5.03;97.23
67109;BME280;54027;50.786;7.058;2022-12-07T00:11:23;101327.75;;;5.04;97.56
67109;BME280;54027;50.786;7.058;2022-12-07T00:13:57;101320.13;;;5.06;97.51
67109;BME280;54027;50.786;7.058;2022-12-07T00:16:24;101322.69;;;5.07;97.12
67109;BME280;54027;50.786;7.058;2022-12-07T00:18:50;101323.63;;;5.09;96.87
67109;BME280;54027;50.786;7.058;2022-12-07T00:21:23;101323.63;;;5.11;96.72
67109;BME280;54027;50.786;7.058;2022-12-07T00:23:49;101321.94;;;5.11;97.02
67109;BME280;54027;50.786;7.058;2022-12-07T00:28:46;101315.16;;;5.13;96.95
67109;BME280;54027;50.786;7.058;2022-12-07T00:31:12;101310.88;;;5.14;96.67
67109;BME280;54027;50.786;7.058;2022-12-07T00:33:38;101310.06;;;5.15;96.17
67109;BME280;54027;50.786;7.058;2022-12-07T00:36:09;101305.78;;;5.14;96.23
67109;BME280;54027;50.786;7.058;2022-12-07T00:38:37;101304.94;;;5.15;96.24
67109;BME280;54027;50.786;7.058;2022-12-07T00:41:06;101304.97;;;5.16;96.37
67109;BME280;54027;50.786;7.058;2022-12-07T00:43:31;101298.16;;;5.17;96.39
67109;BME280;54027;50.786;7.058;2022-12-07T00:45:57;101297.34;;;5.18;96.65
67109;BME280;54027;50.786;7.058;2022-12-07T00:48:24;101294.75;;;5.18;95.95
67109;BME280;54027;50.786;7.058;2022-12-07T00:50:49;101290.50;;;5.18;96.03
67109;BME280;54027;50.786;7.058;2022-12-07T00:53:15;101293.91;;;5.17;96.09
67109;BME280;54027;50.786;7.058;2022-12-07T00:55:41;101288.78;;;5.19;95.88
67109;BME280;54027;50.786;7.058;2022-12-07T00:58:06;101296.44;;;5.16;95.68
67109;BME280;54027;50.786;7.058;2022-12-07T01:00:32;101299.00;;;5.16;95.48
67109;BME280;54027;50.786;7.058;2022-12-07T01:02:58;101287.03;;;5.16;95.72
67109;BME280;54027;50.786;7.058;2022-12-07T01:05:24;101287.03;;;5.16;95.79
67109;BME280;54027;50.786;7.058;2022-12-07T01:07:49;101294.72;;;5.16;95.78
67109;BME280;54027;50.786;7.058;2022-12-07T01:10:14;101289.63;;;5.18;95.39
67109;BME280;54027;50.786;7.058;2022-12-07T01:12:40;101301.59;;;5.19;95.26
67109;BME280;54027;50.786;7.058;2022-12-07T01:15:06;101290.53;;;5.20;95.71
67109;BME280;54027;50.786;7.058;2022-12-07T01:17:32;101288.84;;;5.20;95.65
67109;BME280;54027;50.786;7.058;2022-12-07T01:19:57;101294.84;;;5.22;95.60
67109;BME280;54027;50.786;7.058;2022-12-07T01:22:23;101294.03;;;5.23;95.49
67109;BME280;54027;50.786;7.058;2022-12-07T01:24:48;101299.16;;;5.23;95.09
67109;BME280;54027;50.786;7.058;2022-12-07T01:27:14;101295.78;;;5.25;94.91
67109;BME280;54027;50.786;7.058;2022-12-07T01:29:39;101300.03;;;5.24;95.23
67109;BME280;54027;50.786;7.058;2022-12-07T01:32:05;101294.91;;;5.24;95.06
67109;BME280;54027;50.786;7.058;2022-12-07T01:34:31;101294.91;;;5.24;95.33
67109;BME280;54027;50.786;7.058;2022-12-07T01:36:56;101294.91;;;5.24;94.95
67109;BME280;54027;50.786;7.058;2022-12-07T01:39:22;101295.78;;;5.25;95.33
67109;BME280;54027;50.786;7.058;2022-12-07T01:41:48;101298.34;;;5.25;95.55
67109;BME280;54027;50.786;7.058;2022-12-07T01:44:24;101292.34;;;5.26;95.33
67109;BME280;54027;50.786;7.058;2022-12-07T01:46:58;101289.78;;;5.26;95.54
67109;BME280;54027;50.786;7.058;2022-12-07T01:49:44;101290.66;;;5.26;95.41
67109;BME280;54027;50.786;7.058;2022-12-07T01:52:17;101291.59;;;5.30;94.91
67109;BME280;54027;50.786;7.058;2022-12-07T01:54:45;101295.91;;;5.31;95.11
67109;BME280;54027;50.786;7.058;2022-12-07T01:57:14;101295.91;;;5.32;95.16
67109;BME280;54027;50.786;7.058;2022-12-07T01:59:45;101292.53;;;5.33;95.29
67109;BME280;54027;50.786;7.058;2022-12-07T02:02:18;101289.97;;;5.33;95.39
67109;BME280;54027;50.786;7.058;2022-12-07T02:04:45;101288.28;;;5.35;95.41
67109;BME280;54027;50.786;7.058;2022-12-07T02:07:11;101279.78;;;5.36;95.10
67109;BME280;54027;50.786;7.058;2022-12-07T02:09:37;101276.38;;;5.37;94.99
67109;BME280;54027;50.786;7.058;2022-12-07T02:12:02;101282.38;;;5.38;94.69
67109;BME280;54027;50.786;7.058;2022-12-07T02:14:28;101279.00;;;5.40;95.04
67109;BME280;54027;50.786;7.058;2022-12-07T02:20:13;101270.53;;;5.43;94.71
67109;BME280;54027;50.786;7.058;2022-12-07T02:28:35;101264.53;;;5.44;94.96
67109;BME280;54027;50.786;7.058;2022-12-07T02:31:06;101270.56;;;5.46;94.85
67109;BME280;54027;50.786;7.058;2022-12-07T02:33:46;101265.41;;;5.44;94.89
67109;BME280;54027;50.786;7.058;2022-12-07T02:36:22;101268.84;;;5.45;95.34
67109;BME280;54027;50.786;7.058;2022-12-07T02:38:56;101265.41;;;5.44;94.43
67109;BME280;54027;50.786;7.058;2022-12-07T02:41:33;101273.09;;;5.44;94.55
67109;BME280;54027;50.786;7.058;2022-12-07T02:44:13;101270.53;;;5.44;94.79
67109;BME280;54027;50.786;7.058;2022-12-07T02:46:46;101263.69;;;5.43;95.58
67109;BME280;54027;50.786;7.058;2022-12-07T02:49:12;101261.91;;;5.41;95.50
67109;BME280;54027;50.786;7.058;2022-12-07T02:51:42;101264.47;;;5.39;95.66
67109;BME280;54027;50.786;7.058;2022-12-07T02:54:11;101265.28;;;5.37;96.35
67109;BME280;54027;50.786;7.058;2022-12-07T03:03:03;101261.78;;;5.33;96.59
67109;BME280;54027;50.786;7.058;2022-12-07T03:06:00;101259.22;;;5.33;96.44
67109;BME280;54027;50.786;7.058;2022-12-07T03:08:41;101257.47;;;5.32;96.37
67109;BME280;54027;50.786;7.058;2022-12-07T03:11:13;101263.47;;;5.33;96.53
67109;BME280;54027;50.786;7.058;2022-12-07T03:16:33;101255.72;;;5.31;96.79
67109;BME280;54027;50.786;7.058;2022-12-07T03:19:10;101262.59;;;5.32;96.57
67109;BME280;54027;50.786;7.058;2022-12-07T03:21:44;101256.59;;;5.32;96.75
67109;BME280;54027;50.786;7.058;2022-12-07T03:24:18;101253.16;;;5.31;96.85
67109;BME280;54027;50.786;7.058;2022-12-07T03:26:48;101257.47;;;5.31;96.50
67109;BME280;54027;50.786;7.058;2022-12-07T03:29:30;101252.34;;;5.32;96.41
67109;BME280;54027;50.786;7.058;2022-12-07T03:32:48;101260.09;;;5.34;96.51
67109;BME280;54027;50.786;7.058;2022-12-07T03:35:36;101257.53;;;5.35;96.63
67109;BME280;54027;50.786;7.058;2022-12-07T03:37:56;101259.22;;;5.35;96.25
67109;BME280;54027;50.786;7.058;2022-12-07T03:43:01;101254.97;;;5.35;96.51
67109;BME280;54027;50.786;7.058;2022-12-07T03:48:28;101257.53;;;5.35;96.49
67109;BME280;54027;50.786;7.058;2022-12-07T03:53:46;101261.00;;;5.37;96.80
67109;BME280;54027;50.786;7.058;2022-12-07T03:56:13;101259.28;;;5.38;96.39
67109;BME280;54027;50.786;7.058;2022-12-07T03:58:40;101258.47;;;5.39;96.15
67109;BME280;54027;50.786;7.058;2022-12-07T04:01:06;101261.91;;;5.39;96.35
67109;BME280;54027;50.786;7.058;2022-12-07T04:03:31;101257.66;;;5.40;95.96
67109;BME280;54027;50.786;7.058;2022-12-07T04:05:57;101258.47;;;5.39;96.03
67109;BME280;54027;50.786;7.058;2022-12-07T04:08:24;101258.41;;;5.37;95.96
67109;BME280;54027;50.786;7.058;2022-12-07T04:10:49;101266.09;;;5.36;96.01
67109;BME280;54027;50.786;7.058;2022-12-07T04:13:15;101257.53;;;5.35;96.38
67109;BME280;54027;50.786;7.058;2022-12-07T04:15:40;101264.34;;;5.35;95.99
67109;BME280;54027;50.786;7.058;2022-12-07T04:18:06;101257.53;;;5.34;96.59
67109;BME280;54027;50.786;7.058;2022-12-07T04:20:31;101252.34;;;5.32;96.07
67109;BME280;54027;50.786;7.058;2022-12-07T04:22:56;101256.59;;;5.30;96.24
67109;BME280;54027;50.786;7.058;2022-12-07T04:25:22;101250.53;;;5.28;96.16
67109;BME280;54027;50.786;7.058;2022-12-07T04:27:47;101255.66;;;5.27;96.63
67109;BME280;54027;50.786;7.058;2022-12-07T04:30:12;101260.84;;;5.30;96.21
67109;BME280;54027;50.786;7.058;2022-12-07T04:32:38;101248.84;;;5.27;96.41
67109;BME280;54027;50.786;7.058;2022-12-07T04:35:06;101248.91;;;5.30;96.51
67109;BME280;54027;50.786;7.058;2022-12-07T04:37:32;101256.59;;;5.30;96.29
67109;BME280;54027;50.786;7.058;2022-12-07T04:39:57;101256.59;;;5.32;96.41
67109;BME280;54027;50.786;7.058;2022-12-07T04:42:24;101257.47;;;5.32;96.29
67109;BME280;54027;50.786;7.058;2022-12-07T04:44:49;101254.91;;;5.31;95.83
67109;BME280;54027;50.786;7.058;2022-12-07T04:47:16;101248.84;;;5.29;95.95
67109;BME280;54027;50.786;7.058;2022-12-07T04:49:41;101248.78;;;5.26;95.60
67109;BME280;54027;50.786;7.058;2022-12-07T04:52:06;101239.38;;;5.25;95.79
67109;BME280;54027;50.786;7.058;2022-12-07T04:54:32;101245.28;;;5.22;95.56
67109;BME280;54027;50.786;7.058;2022-12-07T04:56:57;101240.97;;;5.19;95.58
67109;BME280;54027;50.786;7.058;2022-12-07T04:59:22;101245.22;;;5.17;95.86
67109;BME280;54027;50.786;7.058;2022-12-07T05:01:51;101239.19;;;5.15;96.19
67109;BME280;54027;50.786;7.058;2022-12-07T05:04:16;101242.56;;;5.13;95.79
67109;BME280;54027;50.786;7.058;2022-12-07T05:06:43;101239.94;;;5.10;96.66
67109;BME280;54027;50.786;7.058;2022-12-07T05:09:09;101243.28;;;5.07;96.30
67109;BME280;54027;50.786;7.058;2022-12-07T05:11:34;101245.69;;;5.01;96.46
67109;BME280;54027;50.786;7.058;2022-12-07T05:14:09;101243.88;;;4.96;96.63
67109;BME280;54027;50.786;7.058;2022-12-07T05:16:36;101254.84;;;4.90;96.79
67109;BME280;54027;50.786;7.058;2022-12-07T05:19:01;101247.97;;;4.88;96.83
67109;BME280;54027;50.786;7.058;2022-12-07T05:21:27;101254.78;;;4.86;96.76
67109;BME280;54027;50.786;7.058;2022-12-07T05:23:52;101249.66;;;4.87;96.85
67109;BME280;54027;50.786;7.058;2022-12-07T05:26:18;101258.28;;;4.89;96.96
67109;BME280;54027;50.786;7.058;2022-12-07T05:28:43;101266.78;;;4.90;97.02
67109;BME280;54027;50.786;7.058;2022-12-07T05:31:09;101265.16;;;4.93;97.06
67109;BME280;54027;50.786;7.058;2022-12-07T05:33:34;101263.56;;;4.97;96.89
67109;BME280;54027;50.786;7.058;2022-12-07T05:36:00;101256.75;;;4.99;96.97
67109;BME280;54027;50.786;7.058;2022-12-07T05:38:33;101257.63;;;4.99;96.92
67109;BME280;54027;50.786;7.058;2022-12-07T05:41:00;101258.50;;;5.00;97.02
67109;BME280;54027;50.786;7.058;2022-12-07T05:43:26;101257.63;;;4.99;96.31
67109;BME280;54027;50.786;7.058;2022-12-07T05:45:52;101259.25;;;4.96;96.83
67109;BME280;54027;50.786;7.058;2022-12-07T05:48:17;101258.34;;;4.94;96.00
67109;BME280;54027;50.786;7.058;2022-12-07T05:50:42;101257.41;;;4.89;96.06
67109;BME280;54027;50.786;7.058;2022-12-07T05:53:08;101253.91;;;4.85;96.57
67109;BME280;54027;50.786;7.058;2022-12-07T05:55:33;101253.03;;;4.85;96.69
67109;BME280;54027;50.786;7.058;2022-12-07T05:57:59;101257.31;;;4.86;96.61
67109;BME280;54027;50.786;7.058;2022-12-07T06:00:43;101258.16;;;4.85;96.28
67109;BME280;54027;50.786;7.058;2022-12-07T06:03:08;101254.72;;;4.84;96.37
67109;BME280;54027;50.786;7.058;2022-12-07T06:05:33;101256.38;;;4.82;96.50
67109;BME280;54027;50.786;7.058;2022-12-07T06:07:59;101253.00;;;4.83;96.62
67109;BME280;54027;50.786;7.058;2022-12-07T06:10:24;101246.22;;;4.85;96.61
67109;BME280;54027;50.786;7.058;2022-12-07T06:12:49;101256.53;;;4.88;96.61
67109;BME280;54027;50.786;7.058;2022-12-07T06:15:15;101254.03;;;4.91;96.25
67109;BME280;54027;50.786;7.058;2022-12-07T06:17:40;101263.47;;;4.94;96.70
67109;BME280;54027;50.786;7.058;2022-12-07T06:20:06;101262.69;;;4.96;95.80
67109;BME280;54027;50.786;7.058;2022-12-07T06:22:32;101255.94;;;5.00;95.45
67109;BME280;54027;50.786;7.058;2022-12-07T06:24:57;101256.81;;;5.00;95.79
67109;BME280;54027;50.786;7.058;2022-12-07T06:27:22;101256.75;;;4.99;95.92
67109;BME280;54027;50.786;7.058;2022-12-07T06:29:48;101250.69;;;4.95;95.73
67109;BME280;54027;50.786;7.058;2022-12-07T06:32:13;101257.41;;;4.89;95.65
67109;BME280;54027;50.786;7.058;2022-12-07T06:34:39;101262.34;;;4.81;95.67
67109;BME280;54027;50.786;7.058;2022-12-07T06:37:04;101257.91;;;4.74;95.98
67109;BME280;54027;50.786;7.058;2022-12-07T06:39:30;101262.03;;;4.68;96.70
67109;BME280;54027;50.786;7.058;2022-12-07T06:41:56;101271.25;;;4.61;96.61
67109;BME280;54027;50.786;7.058;2022-12-07T06:44:22;101273.78;;;4.59;96.48
67109;BME280;54027;50.786;7.058;2022-12-07T06:46:48;101273.78;;;4.59;97.07
67109;BME280;54027;50.786;7.058;2022-12-07T06:49:14;101272.00;;;4.57;96.93
67109;BME280;54027;50.786;7.058;2022-12-07T06:51:40;101277.97;;;4.56;97.73
67109;BME280;54027;50.786;7.058;2022-12-07T06:54:12;101271.09;;;4.55;97.17
67109;BME280;54027;50.786;7.058;2022-12-07T06:56:39;101275.44;;;4.57;96.94
67109;BME280;54027;50.786;7.058;2022-12-07T06:59:05;101268.69;;;4.59;97.79
67109;BME280;54027;50.786;7.058;2022-12-07T07:01:32;101265.25;;;4.60;97.60
67109;BME280;54027;50.786;7.058;2022-12-07T07:03:57;101267.81;;;4.60;97.24
67109;BME280;54027;50.786;7.058;2022-12-07T07:06:23;101260.19;;;4.62;97.51
67109;BME280;54027;50.786;7.058;2022-12-07T07:08:48;101271.31;;;4.62;97.81
67109;BME280;54027;50.786;7.058;2022-12-07T07:11:13;101276.38;;;4.61;97.96
67109;BME280;54027;50.786;7.058;2022-12-07T07:13:39;101265.25;;;4.59;97.50
67109;BME280;54027;50.786;7.058;2022-12-07T07:16:05;101269.50;;;4.60;96.55
67109;BME280;54027;50.786;7.058;2022-12-07T07:18:31;101284.03;;;4.59;96.89
67109;BME280;54027;50.786;7.058;2022-12-07T07:20:56;101273.81;;;4.61;97.31
67109;BME280;54027;50.786;7.058;2022-12-07T07:23:22;101283.34;;;4.66;97.23
67109;BME280;54027;50.786;7.058;2022-12-07T07:25:48;101280.84;;;4.70;97.26
67109;BME280;54027;50.786;7.058;2022-12-07T07:28:14;101284.28;;;4.72;96.91
67109;BME280;54027;50.786;7.058;2022-12-07T07:30:40;101291.22;;;4.76;96.23
67109;BME280;54027;50.786;7.058;2022-12-07T07:33:06;101288.75;;;4.79;96.01
67109;BME280;54027;50.786;7.058;2022-12-07T07:35:33;101283.69;;;4.82;96.18
67109;BME280;54027;50.786;7.058;2022-12-07T07:37:59;101277.81;;;4.86;95.38
67109;BME280;54027;50.786;7.058;2022-12-07T07:40:24;101291.56;;;4.89;95.93
67109;BME280;54027;50.786;7.058;2022-12-07T07:42:52;101281.34;;;4.92;95.34
67109;BME280;54027;50.786;7.058;2022-12-07T07:45:19;101292.53;;;4.96;95.12
67109;BME280;54027;50.786;7.058;2022-12-07T07:47:45;101290.84;;;4.96;95.57
67109;BME280;54027;50.786;7.058;2022-12-07T07:50:11;101290.91;;;4.98;95.33
67109;BME280;54027;50.786;7.058;2022-12-07T07:52:37;101290.06;;;4.99;95.27
67109;BME280;54027;50.786;7.058;2022-12-07T07:55:02;101289.22;;;5.00;95.64
67109;BME280;54027;50.786;7.058;2022-12-07T07:57:28;101293.59;;;5.04;95.19
67109;BME280;54027;50.786;7.058;2022-12-07T07:59:53;101294.50;;;5.06;95.46
67109;BME280;54027;50.786;7.058;2022-12-07T08:02:20;101287.63;;;5.05;94.97
67109;BME280;54027;50.786;7.058;2022-12-07T08:04:45;101292.75;;;5.05;94.80
67109;BME280;54027;50.786;7.058;2022-12-07T08:07:12;101291.81;;;5.01;95.16
67109;BME280;54027;50.786;7.058;2022-12-07T08:09:43;101295.16;;;4.97;95.54
67109;BME280;54027;50.786;7.058;2022-12-07T08:12:08;101291.59;;;4.91;95.27
67109;BME280;54027;50.786;7.058;2022-12-07T08:14:34;101296.56;;;4.85;95.52
67109;BME280;54027;50.786;7.058;2022-12-07T08:17:00;101287.91;;;4.80;95.35
67109;BME280;54027;50.786;7.058;2022-12-07T08:19:25;101293.03;;;4.80;96.25
67109;BME280;54027;50.786;7.058;2022-12-07T08:21:51;101293.13;;;4.83;96.37
67109;BME280;54027;50.786;7.058;2022-12-07T08:24:16;101286.41;;;4.88;95.94
67109;BME280;54027;50.786;7.058;2022-12-07T08:26:42;101291.75;;;4.98;96.35
67109;BME280;54027;50.786;7.058;2022-12-07T08:29:08;101285.19;;;5.09;96.07
67109;BME280;54027;50.786;7.058;2022-12-07T08:31:36;101285.28;;;5.14;94.86
67109;BME280;54027;50.786;7.058;2022-12-07T08:34:01;101278.59;;;5.20;94.85
67109;BME280;54027;50.786;7.058;2022-12-07T08:36:27;101290.72;;;5.28;94.40
67109;BME280;54027;50.786;7.058;2022-12-07T08:38:52;101293.41;;;5.35;94.07
67109;BME280;54027;50.786;7.058;2022-12-07T08:41:18;101290.13;;;5.41;93.46
67109;BME280;54027;50.786;7.058;2022-12-07T08:43:43;101290.19;;;5.44;93.28
67109;BME280;54027;50.786;7.058;2022-12-07T08:46:19;101297.94;;;5.47;93.69
67109;BME280;54027;50.786;7.058;2022-12-07T08:51:14;101295.25;;;5.41;93.22
67109;BME280;54027;50.786;7.058;2022-12-07T08:53:41;101293.41;;;5.35;93.27
67109;BME280;54027;50.786;7.058;2022-12-07T08:56:07;101296.75;;;5.31;93.43
67109;BME280;54027;50.786;7.058;2022-12-07T08:58:35;101288.97;;;5.27;93.25
67109;BME280;54027;50.786;7.058;2022-12-07T09:01:01;101292.34;;;5.26;93.88
67109;BME280;54027;50.786;7.058;2022-12-07T09:03:26;101294.22;;;5.33;93.74
67109;BME280;54027;50.786;7.058;2022-12-07T09:05:53;101291.84;;;5.42;93.79
67109;BME280;54027;50.786;7.058;2022-12-07T09:08:19;101292.94;;;5.53;93.71
67109;BME280;54027;50.786;7.058;2022-12-07T09:10:44;101300.00;;;5.64;92.44
67109;BME280;54027;50.786;7.058;2022-12-07T09:13:10;101291.59;;;5.71;91.44
67109;BME280;54027;50.786;7.058;2022-12-07T09:15:36;101291.69;;;5.76;91.45
67109;BME280;54027;50.786;7.058;2022-12-07T09:18:01;101298.66;;;5.83;90.93
67109;BME280;54027;50.786;7.058;2022-12-07T09:20:26;101291.84;;;5.85;90.23
67109;BME280;54027;50.786;7.058;2022-12-07T09:22:52;101291.91;;;5.88;90.39
67109;BME280;54027;50.786;7.058;2022-12-07T09:25:17;101292.78;;;5.87;90.22
67109;BME280;54027;50.786;7.058;2022-12-07T09:27:43;101294.47;;;5.88;90.39
67109;BME280;54027;50.786;7.058;2022-12-07T09:30:08;101302.94;;;5.83;90.43
67109;BME280;54027;50.786;7.058;2022-12-07T09:32:34;101306.31;;;5.82;91.09
67109;BME280;54027;50.786;7.058;2022-12-07T09:34:59;101301.19;;;5.80;90.43
67109;BME280;54027;50.786;7.058;2022-12-07T09:37:25;101308.00;;;5.78;90.71
67109;BME280;54027;50.786;7.058;2022-12-07T09:39:51;101302.91;;;5.81;90.60
67109;BME280;54027;50.786;7.058;2022-12-07T09:42:35;101307.19;;;5.81;90.51
67109;BME280;54027;50.786;7.058;2022-12-07T09:45:02;101299.66;;;5.90;90.75
67109;BME280;54027;50.786;7.058;2022-12-07T09:47:30;101298.06;;;5.96;89.78
67109;BME280;54027;50.786;7.058;2022-12-07T09:50:03;101295.66;;;6.04;89.91
67109;BME280;54027;50.786;7.058;2022-12-07T09:52:30;101291.44;;;6.07;89.42
67109;BME280;54027;50.786;7.058;2022-12-07T09:54:55;101294.13;;;6.15;90.12
67109;BME280;54027;50.786;7.058;2022-12-07T09:57:30;101289.03;;;6.16;88.59
67109;BME280;54027;50.786;7.058;2022-12-07T10:00:00;101287.41;;;6.20;88.26
67109;BME280;54027;50.786;7.058;2022-12-07T10:04:59;101289.06;;;6.18;87.85
67109;BME280;54027;50.786;7.058;2022-12-07T10:07:25;101287.41;;;6.23;88.22
67109;BME280;54027;50.786;7.058;2022-12-07T10:09:50;101281.50;;;6.25;87.82
67109;BME280;54027;50.786;7.058;2022-12-07T10:12:16;101288.38;;;6.28;87.94
67109;BME280;54027;50.786;7.058;2022-12-07T10:15:04;101279.81;;;6.27;87.73
67109;BME280;54027;50.786;7.058;2022-12-07T10:17:33;101280.75;;;6.31;87.81
67109;BME280;54027;50.786;7.058;2022-12-07T10:20:14;101277.41;;;6.37;87.44
67109;BME280;54027;50.786;7.058;2022-12-07T10:22:54;101271.38;;;6.34;87.89
67109;BME280;54027;50.786;7.058;2022-12-07T10:25:21;101283.41;;;6.37;88.41
67109;BME280;54027;50.786;7.058;2022-12-07T10:28:00;101272.31;;;6.40;88.39
67109;BME280;54027;50.786;7.058;2022-12-07T10:30:26;101268.88;;;6.39;87.97
67109;BME280;54027;50.786;7.058;2022-12-07T10:32:51;101270.59;;;6.39;87.61
67109;BME280;54027;50.786;7.058;2022-12-07T10:35:29;101274.94;;;6.44;88.48
67109;BME280;54027;50.786;7.058;2022-12-07T10:37:57;101269.75;;;6.40;87.98
67109;BME280;54027;50.786;7.058;2022-12-07T10:40:35;101254.34;;;6.41;88.63
67109;BME280;54027;50.786;7.058;2022-12-07T10:45:27;101250.34;;;6.57;87.99
67109;BME280;54027;50.786;7.058;2022-12-07T11:00:33;101250.56;;;6.72;85.64
67109;BME280;54027;50.786;7.058;2022-12-07T11:10:56;101225.53;;;6.57;85.18
67109;BME280;54027;50.786;7.058;2022-12-07T11:13:28;101225.63;;;6.63;85.58
67109;BME280;54027;50.786;7.058;2022-12-07T11:16:04;101213.69;;;6.68;85.44
67109;BME280;54027;50.786;7.058;2022-12-07T11:21:24;101211.28;;;6.79;84.11
67109;BME280;54027;50.786;7.058;2022-12-07T11:24:04;101204.59;;;6.91;83.83
67109;BME280;54027;50.786;7.058;2022-12-07T11:34:36;101193.34;;;7.50;81.35
67109;BME280;54027;50.786;7.058;2022-12-07T11:37:09;101187.31;;;7.46;80.88
67109;BME280;54027;50.786;7.058;2022-12-07T11:39:44;101187.25;;;7.38;81.94
67109;BME280;54027;50.786;7.058;2022-12-07T11:45:00;101178.44;;;7.21;82.13
67109;BME280;54027;50.786;7.058;2022-12-07T11:47:30;101179.28;;;7.17;81.77
67109;BME280;54027;50.786;7.058;2022-12-07T11:52:51;101182.50;;;7.03;81.66
67109;BME280;54027;50.786;7.058;2022-12-07T11:55:39;101168.78;;;7.02;81.82
67109;BME280;54027;50.786;7.058;2022-12-07T12:00:41;101164.69;;;7.16;80.40
67109;BME280;54027;50.786;7.058;2022-12-07T12:03:20;101162.31;;;7.34;80.78
67109;BME280;54027;50.786;7.058;2022-12-07T12:05:55;101165.03;;;7.47;79.86
67109;BME280;54027;50.786;7.058;2022-12-07T12:08:28;101169.50;;;7.64;80.13
67109;BME280;54027;50.786;7.058;2022-12-07T12:19:43;101151.59;;;7.78;77.50
67109;BME280;54027;50.786;7.058;2022-12-07T12:22:30;101155.09;;;7.83;76.03
67109;BME280;54027;50.786;7.058;2022-12-07T12:24:58;101152.44;;;7.74;76.79
67109;BME280;54027;50.786;7.058;2022-12-07T12:27:35;101153.22;;;7.65;77.32
67109;BME280;54027;50.786;7.058;2022-12-07T12:30:05;101157.47;;;7.62;77.44
67109;BME280;54027;50.786;7.058;2022-12-07T12:32:44;101152.16;;;7.48;78.03
67109;BME280;54027;50.786;7.058;2022-12-07T12:37:45;101152.97;;;7.42;77.90
67109;BME280;54027;50.786;7.058;2022-12-07T12:42:53;101152.88;;;7.32;78.31
67109;BME280;54027;50.786;7.058;2022-12-07T12:45:29;101154.56;;;7.31;79.11
67109;BME280;54027;50.786;7.058;2022-12-07T12:47:59;101146.81;;;7.30;78.29
67109;BME280;54027;50.786;7.058;2022-12-07T12:50:28;101139.09;;;7.25;78.21
67109;BME280;54027;50.786;7.058;2022-12-07T12:53:00;101142.41;;;7.18;79.05
67109;BME280;54027;50.786;7.058;2022-12-07T12:58:32;101140.78;;;7.25;78.79
67109;BME280;54027;50.786;7.058;2022-12-07T13:03:57;101145.88;;;7.20;78.83
67109;BME280;54027;50.786;7.058;2022-12-07T13:08:56;101139.72;;;7.09;78.39
67109;BME280;54027;50.786;7.058;2022-12-07T13:11:34;101142.19;;;7.03;79.63
67109;BME280;54027;50.786;7.058;2022-12-07T13:17:00;101138.84;;;7.07;79.63
67109;BME280;54027;50.786;7.058;2022-12-07T13:25:19;101133.59;;;6.97;81.32
67109;BME280;54027;50.786;7.058;2022-12-07T13:28:01;101131.69;;;6.83;80.78
67109;BME280;54027;50.786;7.058;2022-12-07T13:30:27;101129.97;;;6.82;82.54
67109;BME280;54027;50.786;7.058;2022-12-07T13:32:55;101128.19;;;6.75;81.19
67109;BME280;54027;50.786;7.058;2022-12-07T13:37:53;101123.88;;;6.74;81.92
67109;BME280;54027;50.786;7.058;2022-12-07T13:40:21;101122.16;;;6.75;82.65
67109;BME280;54027;50.786;7.058;2022-12-07T13:42:47;101120.47;;;6.77;82.25
67109;BME280;54027;50.786;7.058;2022-12-07T13:45:29;101112.75;;;6.77;82.48
67109;BME280;54027;50.786;7.058;2022-12-07T13:48:34;101111.09;;;6.79;82.55
67109;BME280;54027;50.786;7.058;2022-12-07T13:51:03;101112.75;;;6.77;82.49
67109;BME280;54027;50.786;7.058;2022-12-07T13:53:29;101111.97;;;6.81;83.17
67109;BME280;54027;50.786;7.058;2022-12-07T13:55:58;101113.72;;;6.82;83.30
67109;BME280;54027;50.786;7.058;2022-12-07T13:58:27;101111.97;;;6.82;82.63
67109;BME280;54027;50.786;7.058;2022-12-07T14:00:55;101106.84;;;6.82;81.30
67109;BME280;54027;50.786;7.058;2022-12-07T14:03:28;101092.28;;;6.81;81.93
67109;BME280;54027;50.786;7.058;2022-12-07T14:08:31;101088.81;;;6.78;81.88
67109;BME280;54027;50.786;7.058;2022-12-07T14:10:57;101089.59;;;6.72;81.57
67109;BME280;54027;50.786;7.058;2022-12-07T14:13:45;101094.69;;;6.69;81.66
67109;BME280;54027;50.786;7.058;2022-12-07T14:16:30;101096.38;;;6.66;81.10
67109;BME280;54027;50.786;7.058;2022-12-07T14:18:58;101092.06;;;6.63;81.04
67109;BME280;54027;50.786;7.058;2022-12-07T14:21:27;101098.88;;;6.61;81.36
67109;BME280;54027;50.786;7.058;2022-12-07T14:24:22;101093.66;;;6.55;81.40
67109;BME280;54027;50.786;7.058;2022-12-07T14:26:50;101089.31;;;6.53;81.84
67109;BME280;54027;50.786;7.058;2022-12-07T14:29:37;101088.41;;;6.48;82.53
67109;BME280;54027;50.786;7.058;2022-12-07T14:32:29;101085.84;;;6.46;82.84
67109;BME280;54027;50.786;7.058;2022-12-07T14:37:26;101076.31;;;6.38;82.80
67109;BME280;54027;50.786;7.058;2022-12-07T14:39:52;101073.66;;;6.33;82.47
67109;BME280;54027;50.786;7.058;2022-12-07T14:42:18;101078.75;;;6.28;83.66
67109;BME280;54027;50.786;7.058;2022-12-07T14:44:44;101073.53;;;6.24;83.67
67109;BME280;54027;50.786;7.058;2022-12-07T14:47:10;101071.78;;;6.20;83.53
67109;BME280;54027;50.786;7.058;2022-12-07T14:49:35;101076.03;;;6.18;83.65
67109;BME280;54027;50.786;7.058;2022-12-07T14:52:01;101071.72;;;6.15;84.27
67109;BME280;54027;50.786;7.058;2022-12-07T14:54:27;101067.41;;;6.14;84.69
67109;BME280;54027;50.786;7.058;2022-12-07T14:56:55;101069.09;;;6.12;84.98
67109;BME280;54027;50.786;7.058;2022-12-07T14:59:21;101069.09;;;6.11;85.02
67109;BME280;54027;50.786;7.058;2022-12-07T15:01:46;101059.63;;;6.08;85.22
67109;BME280;54027;50.786;7.058;2022-12-07T15:04:11;101053.63;;;6.06;84.83